Time;durP1;ratioP1;P1;durP2;ratioP2;P2;SDS_P1;SDS_P2;PMS_P1;PMS_P2;Temp;Humidity;BMP_temperature;BMP_pressure;BME280_temperature;BME280_humidity;BME280_pressure;Samples;Min_cycle;Max_cycle;Signal;HPM_P1;HPM_P2
2021/11/15 00:00:00;;;;;;;14.20;7.70;;;11.00;91.70;;;;;;5077030;28;20021;-79
2021/11/15 00:02:26;;;;;;;14.10;7.30;;;11.00;91.70;;;;;;5076463;28;20027;-79
2021/11/15 00:04:53;;;;;;;13.30;7.88;;;10.80;91.60;;;;;;5076956;28;20028;-79
2021/11/15 00:07:18;;;;;;;15.88;8.80;;;10.80;91.60;;;;;;5075212;28;20028;-79
2021/11/15 00:09:44;;;;;;;14.75;7.55;;;10.80;91.60;;;;;;5076705;28;20028;-80
2021/11/15 00:12:12;;;;;;;13.48;7.53;;;10.70;91.50;;;;;;5076642;28;20047;-79
2021/11/15 00:14:38;;;;;;;14.80;7.80;;;10.60;91.50;;;;;;5076634;28;20025;-79
2021/11/15 00:17:05;;;;;;;20.83;8.93;;;10.60;91.50;;;;;;5076824;28;20052;-79
2021/11/15 00:19:31;;;;;;;16.10;7.72;;;10.50;91.50;;;;;;5076607;28;20033;-80
2021/11/15 00:21:57;;;;;;;14.57;8.32;;;10.50;91.50;;;;;;5076368;28;20032;-79
2021/11/15 00:24:24;;;;;;;16.50;8.23;;;10.50;91.50;;;;;;5076314;28;20033;-79
2021/11/15 00:26:49;;;;;;;14.95;8.07;;;10.40;91.40;;;;;;5077100;28;20059;-79
2021/11/15 00:29:16;;;;;;;18.20;9.30;;;10.30;91.40;;;;;;5076489;28;20063;-80
2021/11/15 00:31:44;;;;;;;16.38;8.70;;;10.30;91.40;;;;;;5076463;28;20023;-80
2021/11/15 00:34:10;;;;;;;15.32;8.10;;;10.20;91.30;;;;;;5076524;28;20047;-79
2021/11/15 00:36:36;;;;;;;13.52;7.40;;;10.20;91.30;;;;;;5076379;28;20508;-80
2021/11/15 00:39:04;;;;;;;15.15;7.93;;;10.10;91.30;;;;;;5075008;28;20074;-79
2021/11/15 00:41:30;;;;;;;14.27;7.20;;;10.10;91.30;;;;;;5077722;28;20016;-79
2021/11/15 00:43:56;;;;;;;14.93;8.25;;;10.00;91.30;;;;;;5079784;28;20067;-80
2021/11/15 00:46:22;;;;;;;16.35;7.93;;;10.00;91.30;;;;;;5078558;28;20495;-79
2021/11/15 00:48:55;;;;;;;14.52;7.97;;;9.90;91.20;;;;;;5095478;28;20041;-79
2021/11/15 00:51:24;;;;;;;16.10;8.50;;;9.90;91.20;;;;;;5079545;28;20437;-79
2021/11/15 00:53:50;;;;;;;13.88;8.30;;;9.80;91.30;;;;;;5074849;28;20102;-79
2021/11/15 00:56:16;;;;;;;13.63;7.60;;;9.80;91.30;;;;;;5078708;28;20024;-79
2021/11/15 00:58:43;;;;;;;17.95;9.00;;;9.80;91.30;;;;;;5079804;28;20039;-79
2021/11/15 01:01:09;;;;;;;13.43;7.25;;;9.70;91.20;;;;;;5079813;28;20043;-80
2021/11/15 01:03:35;;;;;;;16.10;8.45;;;9.70;91.30;;;;;;5079792;28;20516;-79
2021/11/15 01:06:02;;;;;;;13.60;7.18;;;9.70;91.30;;;;;;5079616;28;20033;-80
2021/11/15 01:08:27;;;;;;;16.42;8.88;;;9.60;91.20;;;;;;5079485;28;20020;-79
2021/11/15 01:10:54;;;;;;;14.63;7.10;;;9.60;91.50;;;;;;5079560;28;20029;-79
2021/11/15 01:13:21;;;;;;;13.43;7.38;;;9.60;91.30;;;;;;5079427;28;20032;-79
2021/11/15 01:15:47;;;;;;;16.77;7.78;;;9.60;91.30;;;;;;5079354;28;20095;-79
2021/11/15 01:18:13;;;;;;;14.65;7.65;;;9.60;91.40;;;;;;5079482;28;20029;-79
2021/11/15 01:20:40;;;;;;;15.73;8.35;;;9.60;91.40;;;;;;5079621;28;20095;-79
2021/11/15 01:23:07;;;;;;;12.85;7.78;;;9.50;91.30;;;;;;5079051;28;20028;-80
2021/11/15 01:25:35;;;;;;;14.82;7.82;;;9.50;91.30;;;;;;5077923;28;20037;-80
2021/11/15 01:28:01;;;;;;;13.45;7.45;;;9.50;91.30;;;;;;5079114;28;20029;-79
2021/11/15 01:30:27;;;;;;;15.85;8.07;;;9.40;91.30;;;;;;5079165;28;20032;-79
2021/11/15 01:32:53;;;;;;;13.57;7.47;;;9.40;91.30;;;;;;5077662;28;20013;-79
2021/11/15 01:35:20;;;;;;;14.40;7.68;;;9.40;91.30;;;;;;5079379;28;20029;-80
2021/11/15 01:37:46;;;;;;;14.32;7.50;;;9.30;91.30;;;;;;5078451;28;20043;-79
2021/11/15 01:40:14;;;;;;;12.52;7.03;;;9.30;91.40;;;;;;5079086;28;20032;-79
2021/11/15 01:42:41;;;;;;;16.05;8.18;;;9.30;91.40;;;;;;5078814;28;20043;-80
2021/11/15 01:45:07;;;;;;;13.07;7.03;;;9.30;91.40;;;;;;5078988;28;20029;-79
2021/11/15 01:47:34;;;;;;;11.68;6.72;;;9.20;91.30;;;;;;5077356;28;20033;-79
2021/11/15 01:50:00;;;;;;;13.82;7.22;;;9.20;91.30;;;;;;5077594;28;20029;-78
2021/11/15 01:52:26;;;;;;;14.68;7.07;;;9.20;91.30;;;;;;5077161;28;20479;-79
2021/11/15 01:54:52;;;;;;;14.27;7.15;;;9.10;91.60;;;;;;5077757;28;20438;-79
2021/11/15 01:57:18;;;;;;;11.75;6.82;;;9.10;91.40;;;;;;5078580;28;20021;-79
2021/11/15 01:59:46;;;;;;;10.95;6.28;;;9.00;91.30;;;;;;5078819;28;20451;-79
2021/11/15 02:02:12;;;;;;;15.07;6.95;;;9.00;91.30;;;;;;5078234;28;20020;-79
2021/11/15 02:04:38;;;;;;;12.95;7.25;;;9.00;91.30;;;;;;5078833;28;20424;-79
2021/11/15 02:07:04;;;;;;;14.88;7.45;;;8.90;91.20;;;;;;5078100;28;20025;-79
2021/11/15 02:09:30;;;;;;;12.80;6.88;;;8.90;91.30;;;;;;5078600;28;20028;-79
2021/11/15 02:11:57;;;;;;;14.00;6.85;;;8.90;91.30;;;;;;5078309;28;20505;-79
2021/11/15 02:14:23;;;;;;;12.57;7.32;;;8.80;91.30;;;;;;5078484;28;20020;-79
2021/11/15 02:16:49;;;;;;;13.18;7.85;;;8.80;91.30;;;;;;5077409;28;20020;-79
2021/11/15 02:19:16;;;;;;;15.20;7.00;;;8.80;91.30;;;;;;5069901;28;20035;-79
2021/11/15 02:21:42;;;;;;;14.98;7.20;;;8.80;91.30;;;;;;5077940;28;20028;-79
2021/11/15 02:24:10;;;;;;;15.10;7.03;;;8.70;91.30;;;;;;5078393;28;20063;-79
2021/11/15 02:26:36;;;;;;;12.02;5.85;;;8.70;91.30;;;;;;5078143;28;20074;-79
2021/11/15 02:29:02;;;;;;;11.63;6.88;;;8.70;91.30;;;;;;5078199;28;20025;-79
2021/11/15 02:31:28;;;;;;;10.95;6.35;;;8.70;91.30;;;;;;5077976;28;20032;-79
2021/11/15 02:33:58;;;;;;;10.75;6.18;;;8.70;91.30;;;;;;5078004;28;20027;-78
2021/11/15 02:36:27;;;;;;;12.02;6.28;;;8.70;91.40;;;;;;5077507;28;20047;-78
2021/11/15 02:38:53;;;;;;;12.73;6.70;;;8.60;91.40;;;;;;5077796;28;20429;-78
2021/11/15 02:41:21;;;;;;;15.18;7.40;;;8.70;91.60;;;;;;5078340;28;20017;-78
2021/11/15 02:43:47;;;;;;;12.05;6.55;;;8.70;91.60;;;;;;5077757;28;20020;-78
2021/11/15 02:46:14;;;;;;;15.50;7.22;;;8.70;91.70;;;;;;5076587;28;20078;-78
2021/11/15 02:48:40;;;;;;;15.30;7.20;;;8.80;91.70;;;;;;5077838;28;20471;-80
2021/11/15 02:51:06;;;;;;;11.98;6.78;;;8.80;91.70;;;;;;5077373;28;20017;-80
2021/11/15 02:53:32;;;;;;;15.98;7.57;;;8.80;92.00;;;;;;5076609;28;20028;-79
2021/11/15 02:55:58;;;;;;;12.77;6.78;;;8.90;91.70;;;;;;5077953;28;20012;-80
2021/11/15 02:58:25;;;;;;;12.52;6.93;;;8.90;91.70;;;;;;5077733;28;20158;-80
2021/11/15 03:00:59;;;;;;;15.23;8.05;;;8.90;91.80;;;;;;5076313;28;20024;-80
2021/11/15 03:03:25;;;;;;;13.27;7.80;;;8.90;91.80;;;;;;5077329;28;20032;-79
2021/11/15 03:05:53;;;;;;;15.25;7.95;;;8.90;91.80;;;;;;5077506;28;20032;-79
2021/11/15 03:08:20;;;;;;;12.73;6.97;;;8.90;91.80;;;;;;5077408;28;20038;-79
2021/11/15 03:10:48;;;;;;;15.55;7.55;;;8.90;91.80;;;;;;5077440;28;20483;-80
2021/11/15 03:13:16;;;;;;;14.35;7.45;;;8.90;91.80;;;;;;5077476;28;20020;-79
2021/11/15 03:15:48;;;;;;;12.23;7.28;;;8.90;91.70;;;;;;5077628;28;20016;-79
2021/11/15 03:18:37;;;;;;;15.68;6.53;;;8.90;91.70;;;;;;5077472;28;20475;-79
2021/11/15 03:21:14;;;;;;;15.38;7.78;;;8.90;91.80;;;;;;5077030;28;20033;-79
2021/11/15 03:23:42;;;;;;;15.80;8.02;;;8.80;91.80;;;;;;5077445;28;20088;-79
2021/11/15 03:26:09;;;;;;;14.98;8.35;;;8.80;91.80;;;;;;5077235;28;20384;-79
2021/11/15 03:28:39;;;;;;;14.85;7.50;;;8.80;91.80;;;;;;5077576;28;20111;-79
2021/11/15 03:31:15;;;;;;;14.95;7.70;;;8.70;91.80;;;;;;5076008;28;20471;-79
2021/11/15 03:33:41;;;;;;;13.95;7.35;;;8.70;91.80;;;;;;5077283;28;20020;-79
2021/11/15 03:36:08;;;;;;;12.93;7.55;;;8.70;91.80;;;;;;5076785;28;20016;-79
2021/11/15 03:38:35;;;;;;;15.02;7.68;;;8.70;91.70;;;;;;5077258;28;20111;-79
2021/11/15 03:41:01;;;;;;;16.75;7.50;;;8.60;91.70;;;;;;5077145;28;20099;-79
2021/11/15 03:43:27;;;;;;;11.98;7.60;;;8.60;91.70;;;;;;5077179;28;20024;-79
2021/11/15 03:45:53;;;;;;;14.90;7.80;;;8.60;91.70;;;;;;5075689;28;20021;-79
2021/11/15 03:48:21;;;;;;;15.88;7.78;;;8.50;91.70;;;;;;5077462;28;20036;-79
2021/11/15 03:50:47;;;;;;;16.33;8.25;;;8.50;91.70;;;;;;5076724;28;20049;-79
2021/11/15 03:53:15;;;;;;;13.82;7.72;;;8.40;91.70;;;;;;5075959;28;20031;-79
2021/11/15 03:55:41;;;;;;;16.17;7.35;;;8.40;91.70;;;;;;5076971;28;20031;-79
2021/11/15 03:58:08;;;;;;;14.93;8.45;;;8.40;91.70;;;;;;5077155;28;20437;-79
2021/11/15 04:00:36;;;;;;;14.48;7.75;;;8.30;91.70;;;;;;5076999;28;20031;-79
2021/11/15 04:03:05;;;;;;;16.80;9.52;;;8.30;91.70;;;;;;5077062;28;20027;-79
2021/11/15 04:05:35;;;;;;;17.48;8.27;;;8.30;91.70;;;;;;5076840;28;20441;-80
2021/11/15 04:08:03;;;;;;;13.55;8.02;;;8.20;91.70;;;;;;5077209;28;20029;-79
2021/11/15 04:10:39;;;;;;;16.13;8.77;;;8.20;91.60;;;;;;5076667;28;20017;-79
2021/11/15 04:13:18;;;;;;;17.20;9.32;;;8.20;91.70;;;;;;5077010;28;20021;-79
2021/11/15 04:15:46;;;;;;;16.35;8.48;;;8.20;91.70;;;;;;5078342;28;20029;-79
2021/11/15 04:18:18;;;;;;;17.45;8.55;;;8.20;91.70;;;;;;5080644;28;20403;-79
2021/11/15 04:20:45;;;;;;;16.08;8.38;;;8.20;91.80;;;;;;5080501;28;20024;-79
2021/11/15 04:23:11;;;;;;;15.07;9.05;;;8.20;91.80;;;;;;5079193;28;20056;-79
2021/11/15 04:25:38;;;;;;;15.60;8.52;;;8.20;91.80;;;;;;5080649;28;20029;-79
2021/11/15 04:28:04;;;;;;;20.95;9.52;;;8.30;91.80;;;;;;5080433;28;20025;-79
2021/11/15 04:30:31;;;;;;;17.25;8.80;;;8.30;91.90;;;;;;5079178;28;20029;-79
2021/11/15 04:33:02;;;;;;;16.85;9.10;;;8.40;92.00;;;;;;5078889;28;20021;-79
2021/11/15 04:35:28;;;;;;;21.67;10.90;;;8.40;92.00;;;;;;5080289;28;20425;-79
2021/11/15 04:37:55;;;;;;;20.10;10.88;;;8.40;92.00;;;;;;5079902;28;20040;-79
2021/11/15 04:40:21;;;;;;;20.60;10.80;;;8.50;92.10;;;;;;5080277;28;20031;-79
2021/11/15 04:42:47;;;;;;;22.95;11.50;;;8.50;92.10;;;;;;5078932;28;20031;-79
2021/11/15 04:45:13;;;;;;;21.70;11.55;;;8.60;92.10;;;;;;5080290;28;20021;-79
2021/11/15 04:47:41;;;;;;;26.67;12.82;;;8.60;92.10;;;;;;5076935;28;20114;-79
2021/11/15 04:50:08;;;;;;;22.25;12.77;;;8.60;92.10;;;;;;5080064;28;20029;-79
2021/11/15 04:52:34;;;;;;;25.15;12.50;;;8.70;92.10;;;;;;5078306;28;20025;-79
2021/11/15 04:55:00;;;;;;;26.77;12.00;;;8.70;92.20;;;;;;5075093;28;20101;-79
2021/11/15 04:57:26;;;;;;;24.52;13.48;;;8.70;92.20;;;;;;5079941;28;20020;-79
2021/11/15 04:59:53;;;;;;;24.33;12.55;;;8.80;92.30;;;;;;5080046;28;20031;-79
2021/11/15 05:02:19;;;;;;;23.70;12.27;;;8.80;92.30;;;;;;5079749;28;20032;-79
2021/11/15 05:04:45;;;;;;;28.30;13.90;;;8.80;92.30;;;;;;5079875;28;20028;-79
2021/11/15 05:07:11;;;;;;;23.75;12.75;;;8.90;92.30;;;;;;5079449;28;20426;-79
2021/11/15 05:09:38;;;;;;;27.20;13.52;;;8.90;92.30;;;;;;5079603;28;20021;-79
2021/11/15 05:12:04;;;;;;;25.48;13.18;;;8.90;92.30;;;;;;5079805;28;20028;-80
2021/11/15 05:14:30;;;;;;;28.83;13.52;;;9.00;92.40;;;;;;5079667;28;20161;-80
2021/11/15 05:16:56;;;;;;;26.75;13.50;;;9.00;92.40;;;;;;5079758;28;20028;-79
2021/11/15 05:19:22;;;;;;;24.90;12.57;;;9.00;92.40;;;;;;5079854;28;20082;-79
2021/11/15 05:21:48;;;;;;;24.35;12.55;;;9.00;92.40;;;;;;5079344;28;20039;-79
2021/11/15 05:24:14;;;;;;;23.88;12.45;;;9.00;92.30;;;;;;5079635;28;20025;-79
2021/11/15 05:26:39;;;;;;;25.00;12.60;;;9.00;92.30;;;;;;5065905;28;20074;-78
2021/11/15 05:29:05;;;;;;;25.92;13.82;;;9.00;92.40;;;;;;5079337;28;20021;-79
2021/11/15 05:31:34;;;;;;;23.88;13.05;;;9.00;92.30;;;;;;5079669;28;20024;-79
2021/11/15 05:34:02;;;;;;;24.42;13.02;;;8.90;92.30;;;;;;5079170;28;20027;-79
2021/11/15 05:36:27;;;;;;;23.63;13.27;;;8.90;92.30;;;;;;5077683;28;20519;-79
2021/11/15 05:38:53;;;;;;;28.55;14.20;;;8.90;92.30;;;;;;5078980;28;20056;-79
2021/11/15 05:41:19;;;;;;;24.75;13.52;;;8.80;92.20;;;;;;5079393;28;20392;-79
2021/11/15 05:43:45;;;;;;;25.67;14.50;;;8.80;92.20;;;;;;5078969;28;20017;-79
2021/11/15 05:46:11;;;;;;;30.75;13.65;;;8.80;92.20;;;;;;5076350;28;20031;-79
2021/11/15 05:48:37;;;;;;;32.30;15.00;;;8.70;92.20;;;;;;5079101;28;20021;-79
2021/11/15 05:51:02;;;;;;;26.25;13.40;;;8.70;92.10;;;;;;5078487;28;20032;-79
2021/11/15 05:53:29;;;;;;;28.10;14.23;;;8.60;92.00;;;;;;5077770;28;20510;-78
2021/11/15 05:55:54;;;;;;;32.67;16.05;;;8.60;92.00;;;;;;5078630;28;20031;-78
2021/11/15 05:58:20;;;;;;;34.63;16.02;;;8.50;92.00;;;;;;5078848;28;20017;-79
2021/11/15 06:00:46;;;;;;;30.42;14.88;;;8.50;92.00;;;;;;5078652;28;20028;-79
2021/11/15 06:03:12;;;;;;;32.22;16.05;;;8.40;91.90;;;;;;5078775;28;20025;-79
2021/11/15 06:05:38;;;;;;;32.55;16.08;;;8.40;91.90;;;;;;5078237;28;20032;-78
2021/11/15 06:08:04;;;;;;;30.58;15.10;;;8.30;91.90;;;;;;5078680;28;20070;-77
2021/11/15 06:10:30;;;;;;;31.00;16.15;;;8.30;91.90;;;;;;5065433;28;20028;-79
2021/11/15 06:12:57;;;;;;;31.42;13.98;;;8.20;91.90;;;;;;5078390;28;20024;-79
2021/11/15 06:15:22;;;;;;;34.22;14.25;;;8.20;91.80;;;;;;5078359;28;20017;-77
2021/11/15 06:17:50;;;;;;;34.72;17.05;;;8.20;91.80;;;;;;5078405;28;20021;-77
2021/11/15 06:20:17;;;;;;;37.33;16.42;;;8.10;91.80;;;;;;5077186;28;20033;-77
2021/11/15 06:22:44;;;;;;;42.05;17.27;;;8.10;91.90;;;;;;5077906;28;20029;-78
2021/11/15 06:25:11;;;;;;;36.35;17.95;;;8.10;91.90;;;;;;5076828;28;20086;-79
2021/11/15 06:27:38;;;;;;;39.42;17.02;;;8.00;91.90;;;;;;5078147;28;20092;-76
2021/11/15 06:30:07;;;;;;;35.83;17.85;;;8.00;92.00;;;;;;5078279;28;20025;-76
2021/11/15 06:32:33;;;;;;;37.50;17.27;;;8.00;92.00;;;;;;5077825;28;20017;-72
2021/11/15 06:34:58;;;;;;;36.50;17.40;;;8.00;92.00;;;;;;5078338;28;20582;-73
2021/11/15 06:37:25;;;;;;;35.72;16.38;;;8.00;92.00;;;;;;5077398;28;20045;-76
2021/11/15 06:39:51;;;;;;;33.42;17.45;;;8.00;92.00;;;;;;5077571;28;20028;-74
2021/11/15 06:42:17;;;;;;;41.90;17.48;;;7.90;92.00;;;;;;5078024;28;20051;-76
2021/11/15 06:44:43;;;;;;;37.10;17.70;;;7.90;92.00;;;;;;5077891;28;20560;-81
2021/11/15 06:47:09;;;;;;;37.08;17.52;;;7.90;92.10;;;;;;5076551;28;20498;-82
2021/11/15 06:49:35;;;;;;;41.95;17.73;;;7.90;92.30;;;;;;5077745;28;20021;-82
2021/11/15 06:52:02;;;;;;;34.70;16.38;;;7.80;92.30;;;;;;5077355;28;20017;-82
2021/11/15 06:54:28;;;;;;;40.78;18.38;;;7.80;92.30;;;;;;5076644;28;20028;-82
2021/11/15 06:56:54;;;;;;;41.50;18.95;;;7.90;92.40;;;;;;5077080;28;20020;-82
2021/11/15 06:59:20;;;;;;;38.55;17.90;;;7.90;92.50;;;;;;5077796;28;20029;-82
2021/11/15 07:01:46;;;;;;;47.28;19.98;;;7.90;92.70;;;;;;5077711;28;20111;-82
2021/11/15 07:04:12;;;;;;;45.75;19.33;;;8.00;92.70;;;;;;5076627;28;20036;-82
2021/11/15 07:06:41;;;;;;;45.72;21.38;;;8.00;92.90;;;;;;5077445;28;20021;-82
2021/11/15 07:09:08;;;;;;;48.83;21.52;;;8.10;93.10;;;;;;5077409;28;20440;-82
2021/11/15 07:11:34;;;;;;;44.33;20.65;;;8.10;93.10;;;;;;5077489;28;20016;-82
2021/11/15 07:14:01;;;;;;;49.83;21.98;;;8.10;93.10;;;;;;5077635;28;20387;-82
2021/11/15 07:16:27;;;;;;;51.22;21.30;;;8.20;93.00;;;;;;5077380;28;20484;-82
2021/11/15 07:18:53;;;;;;;47.42;20.25;;;8.20;93.00;;;;;;5076231;28;20047;-82
2021/11/15 07:21:21;;;;;;;41.85;18.67;;;8.20;93.00;;;;;;5077089;28;20103;-82
2021/11/15 07:23:47;;;;;;;45.10;20.80;;;8.30;93.00;;;;;;5077363;28;20471;-82
2021/11/15 07:26:13;;;;;;;46.83;20.13;;;8.30;93.00;;;;;;5077374;28;20040;-82
2021/11/15 07:28:39;;;;;;;48.50;20.98;;;8.40;93.00;;;;;;5077505;28;20475;-82
2021/11/15 07:31:05;;;;;;;51.63;21.92;;;8.40;93.20;;;;;;5075922;28;20052;-82
2021/11/15 07:33:31;;;;;;;55.80;24.92;;;8.40;93.20;;;;;;5077236;28;20490;-82
2021/11/15 07:35:57;;;;;;;51.80;22.20;;;8.40;93.40;;;;;;5076829;28;20047;-82
2021/11/15 07:38:23;;;;;;;50.88;21.52;;;8.50;93.40;;;;;;5077477;28;20536;-82
2021/11/15 07:40:50;;;;;;;48.63;21.23;;;8.50;93.30;;;;;;5077053;28;20020;-82
2021/11/15 07:43:16;;;;;;;48.22;21.23;;;8.50;93.30;;;;;;5077347;28;20032;-82
2021/11/15 07:45:42;;;;;;;46.63;20.95;;;8.50;93.20;;;;;;5075651;28;20052;-82
2021/11/15 07:48:08;;;;;;;50.33;20.90;;;8.50;93.20;;;;;;5077435;28;20052;-82
2021/11/15 07:50:36;;;;;;;42.47;19.05;;;8.50;93.10;;;;;;5079957;28;20032;-82
2021/11/15 07:53:02;;;;;;;46.45;20.83;;;8.50;93.00;;;;;;5080550;28;20031;-82
2021/11/15 07:55:28;;;;;;;46.13;22.15;;;8.50;93.00;;;;;;5076800;28;20017;-82
2021/11/15 07:57:56;;;;;;;46.40;19.98;;;8.50;92.90;;;;;;5081326;28;20056;-82
2021/11/15 08:00:24;;;;;;;57.33;25.17;;;8.40;92.80;;;;;;5081037;28;20102;-83
2021/11/15 08:02:50;;;;;;;51.67;25.10;;;8.40;92.80;;;;;;5081123;28;20082;-83
2021/11/15 08:05:18;;;;;;;53.15;25.50;;;8.40;92.80;;;;;;5080831;28;20055;-82
2021/11/15 08:07:45;;;;;;;53.13;24.08;;;8.40;92.70;;;;;;5080958;28;20059;-82
2021/11/15 08:10:12;;;;;;;45.97;21.80;;;8.30;92.70;;;;;;5080656;28;20107;-83
2021/11/15 08:12:41;;;;;;;48.88;23.25;;;8.30;92.60;;;;;;5080893;28;20082;-82
2021/11/15 08:15:09;;;;;;;54.22;24.13;;;8.30;92.60;;;;;;5080767;28;20043;-82
2021/11/15 08:17:40;;;;;;;56.90;22.67;;;8.30;92.90;;;;;;5080902;28;20020;-82
2021/11/15 08:20:10;;;;;;;56.90;25.33;;;8.40;93.30;;;;;;5080608;28;20848;-82
2021/11/15 08:22:36;;;;;;;54.90;23.58;;;8.40;93.30;;;;;;5080458;28;20036;-83
2021/11/15 08:25:26;;;;;;;54.88;23.05;;;8.50;93.50;;;;;;5079229;28;20029;-82
2021/11/15 08:27:54;;;;;;;52.13;22.20;;;8.60;93.50;;;;;;5080472;28;20040;-82
2021/11/15 08:30:20;;;;;;;54.78;25.00;;;8.60;93.40;;;;;;5080554;28;20032;-82
2021/11/15 08:32:46;;;;;;;58.45;24.08;;;8.60;93.40;;;;;;5080285;28;20033;-83
2021/11/15 08:35:12;;;;;;;59.28;25.13;;;8.70;93.50;;;;;;5080459;28;20446;-83
2021/11/15 08:38:12;;;;;;;58.42;25.30;;;8.70;93.60;;;;;;5080124;28;20040;-84
2021/11/15 08:40:37;;;;;;;67.10;26.23;;;8.70;93.90;;;;;;5080087;28;20495;-83
2021/11/15 08:43:03;;;;;;;61.55;25.42;;;8.80;94.00;;;;;;5080342;28;20046;-83
2021/11/15 08:45:31;;;;;;;62.22;25.52;;;8.80;94.10;;;;;;5080164;28;20025;-83
2021/11/15 08:47:57;;;;;;;64.18;27.20;;;8.90;94.40;;;;;;5079185;28;20055;-83
2021/11/15 08:50:23;;;;;;;63.80;25.67;;;8.90;94.10;;;;;;5079648;28;20040;-83
2021/11/15 08:52:49;;;;;;;57.60;25.20;;;9.00;94.10;;;;;;5080169;28;20013;-83
2021/11/15 08:55:15;;;;;;;63.97;26.42;;;9.10;94.10;;;;;;5078631;28;20031;-83
2021/11/15 08:57:41;;;;;;;59.45;26.35;;;9.20;93.90;;;;;;5080105;28;20021;-83
2021/11/15 09:00:08;;;;;;;59.22;25.20;;;9.20;93.80;;;;;;5078629;28;20028;-81
2021/11/15 09:02:34;;;;;;;63.00;27.45;;;9.30;93.90;;;;;;5079317;28;20379;-82
2021/11/15 09:04:59;;;;;;;66.57;26.00;;;9.30;93.80;;;;;;5079807;28;20029;-81
2021/11/15 09:07:26;;;;;;;59.90;25.80;;;9.30;93.70;;;;;;5079566;28;20027;-81
2021/11/15 09:09:52;;;;;;;59.45;25.83;;;9.40;93.70;;;;;;5079557;28;20070;-81
2021/11/15 09:12:18;;;;;;;62.50;26.58;;;9.40;93.60;;;;;;5079759;28;20021;-81
2021/11/15 09:14:44;;;;;;;65.03;27.13;;;9.40;93.50;;;;;;5079676;28;20023;-81
2021/11/15 09:17:10;;;;;;;59.58;25.38;;;9.50;93.40;;;;;;5079682;28;20028;-81
2021/11/15 09:19:38;;;;;;;57.10;24.42;;;9.50;93.30;;;;;;5079695;28;20028;-81
2021/11/15 09:22:04;;;;;;;57.17;25.58;;;9.50;93.30;;;;;;5079345;28;20480;-81
2021/11/15 09:24:30;;;;;;;60.15;26.58;;;9.60;93.30;;;;;;5079368;28;20028;-81
2021/11/15 09:26:58;;;;;;;60.80;24.15;;;9.70;93.30;;;;;;5079425;28;20031;-81
2021/11/15 09:29:24;;;;;;;57.45;24.67;;;9.90;93.30;;;;;;5079337;28;20024;-81
2021/11/15 09:31:50;;;;;;;58.90;27.30;;;10.00;93.30;;;;;;5079383;28;20086;-81
2021/11/15 09:34:16;;;;;;;71.55;30.63;;;10.30;93.70;;;;;;5079299;28;20475;-81
2021/11/15 09:36:42;;;;;;;67.45;30.35;;;10.60;93.70;;;;;;5078958;28;20051;-81
2021/11/15 09:39:08;;;;;;;65.43;28.42;;;11.00;93.50;;;;;;5078957;28;20024;-81
2021/11/15 09:41:36;;;;;;;70.70;29.58;;;11.40;93.30;;;;;;5079236;28;20024;-83
2021/11/15 09:44:03;;;;;;;64.28;29.13;;;11.90;93.20;;;;;;5078972;28;20028;-83
2021/11/15 09:46:31;;;;;;;63.90;28.38;;;12.40;92.90;;;;;;5077752;28;20021;-83
2021/11/15 09:49:04;;;;;;;61.28;29.50;;;12.80;92.50;;;;;;5078898;28;20052;-83
2021/11/15 09:51:31;;;;;;;52.72;24.30;;;13.20;92.10;;;;;;5078807;28;20032;-84
2021/11/15 09:53:59;;;;;;;56.40;24.17;;;13.80;91.70;;;;;;5077583;28;20030;-84
2021/11/15 09:56:25;;;;;;;44.83;22.98;;;14.20;91.00;;;;;;5079010;28;20024;-83
2021/11/15 09:58:51;;;;;;;47.15;23.85;;;14.60;90.30;;;;;;5078714;28;20017;-82
2021/11/15 10:01:18;;;;;;;50.70;23.45;;;14.90;89.10;;;;;;5078881;28;20034;-82
2021/11/15 10:03:44;;;;;;;45.40;23.30;;;15.20;88.50;;;;;;5078706;28;20082;-82
2021/11/15 10:06:10;;;;;;;42.92;22.33;;;15.50;86.90;;;;;;5078458;28;20036;-82
2021/11/15 10:08:46;;;;;;;45.88;22.63;;;15.80;86.20;;;;;;5077101;28;20024;-81
2021/11/15 10:11:12;;;;;;;41.75;20.70;;;16.20;84.00;;;;;;5078797;28;20502;-81
2021/11/15 10:13:40;;;;;;;49.72;25.17;;;16.40;84.00;;;;;;5077496;28;20016;-81
2021/11/15 10:16:26;;;;;;;49.92;23.20;;;16.70;82.80;;;;;;5077189;28;20471;-82
2021/11/15 10:18:57;;;;;;;46.05;22.67;;;16.90;80.70;;;;;;5067954;28;20024;-82
2021/11/15 10:21:37;;;;;;;47.13;21.77;;;17.10;79.70;;;;;;5078076;28;20105;-81
2021/11/15 10:24:10;;;;;;;47.60;22.20;;;17.30;79.20;;;;;;5078370;28;20118;-81
2021/11/15 10:26:51;;;;;;;51.25;23.17;;;17.60;78.20;;;;;;5078286;28;20028;-81
2021/11/15 10:29:24;;;;;;;44.75;21.63;;;17.80;78.00;;;;;;5078315;28;20056;-81
2021/11/15 10:31:54;;;;;;;41.88;22.08;;;17.90;76.40;;;;;;5078022;28;20112;-81
2021/11/15 10:34:25;;;;;;;43.95;22.35;;;18.10;76.80;;;;;;5077976;28;20491;-81
2021/11/15 10:37:19;;;;;;;47.58;23.50;;;18.30;75.20;;;;;;5077742;28;20565;-81
2021/11/15 10:39:52;;;;;;;50.65;23.90;;;18.40;74.50;;;;;;5066435;28;20063;-81
2021/11/15 10:42:21;;;;;;;47.67;23.90;;;18.60;74.00;;;;;;5077866;28;20117;-81
2021/11/15 10:44:51;;;;;;;46.60;23.25;;;18.70;73.00;;;;;;5078026;28;20056;-81
2021/11/15 10:47:18;;;;;;;56.63;27.05;;;18.90;71.00;;;;;;5076447;28;20434;-82
2021/11/15 10:49:46;;;;;;;60.08;28.92;;;19.00;69.90;;;;;;5078077;28;20024;-81
2021/11/15 10:52:15;;;;;;;91.82;46.15;;;19.10;70.00;;;;;;5077567;28;20036;-82
2021/11/15 10:54:58;;;;;;;156.55;78.20;;;19.20;70.20;;;;;;5076584;28;20074;-81
2021/11/15 10:57:31;;;;;;;115.30;55.10;;;19.20;69.10;;;;;;5077664;28;20059;-81
2021/11/15 11:02:34;;;;;;;141.05;70.47;;;19.30;67.40;;;;;;5065040;28;20060;-82
2021/11/15 11:05:07;;;;;;;97.32;44.97;;;19.30;68.00;;;;;;5076200;28;20020;-82
2021/11/15 11:07:44;;;;;;;61.58;29.58;;;19.40;67.40;;;;;;5077527;28;20024;-82
2021/11/15 11:10:16;;;;;;;61.10;27.73;;;19.40;67.80;;;;;;5077294;28;20031;-82
2021/11/15 11:12:55;;;;;;;53.15;25.25;;;19.50;68.10;;;;;;5077660;28;20021;-82
2021/11/15 11:15:29;;;;;;;62.50;30.20;;;19.60;67.20;;;;;;5077367;28;20029;-82
2021/11/15 11:18:12;;;;;;;69.47;34.50;;;19.70;67.70;;;;;;5077580;28;20024;-82
2021/11/15 11:24:42;;;;;;;56.40;26.85;;;19.80;66.90;;;;;;5053904;28;20040;-82
2021/11/15 11:26:35;;;;;;;47.58;24.45;;;20.00;68.20;;;;;;5072379;28;20044;-82
2021/11/15 11:29:12;;;;;;;68.40;36.20;;;20.10;68.00;;;;;;5077444;28;20017;-82
2021/11/15 11:31:42;;;;;;;61.67;30.50;;;20.20;67.40;;;;;;5064843;28;20487;-82
2021/11/15 11:34:08;;;;;;;56.90;27.80;;;20.30;66.90;;;;;;5077388;28;20064;-83
2021/11/15 11:36:35;;;;;;;57.30;26.70;;;20.30;66.20;;;;;;5076955;28;20040;-82
2021/11/15 11:39:05;;;;;;;53.05;24.55;;;20.30;65.80;;;;;;5076969;28;20020;-82
2021/11/15 11:41:31;;;;;;;49.97;23.67;;;20.30;65.10;;;;;;5077442;28;20025;-83
2021/11/15 11:43:56;;;;;;;53.08;27.10;;;20.30;65.40;;;;;;5077012;28;20055;-82
2021/11/15 11:46:23;;;;;;;57.90;28.48;;;20.10;64.30;;;;;;5075831;28;20478;-82
2021/11/15 11:48:52;;;;;;;52.10;26.38;;;20.00;64.30;;;;;;5077000;28;20107;-82
2021/11/15 11:51:19;;;;;;;48.20;23.77;;;19.90;65.30;;;;;;5076850;28;20029;-83
2021/11/15 11:53:46;;;;;;;55.88;24.67;;;19.90;65.60;;;;;;5075610;28;20031;-82
2021/11/15 11:56:22;;;;;;;50.88;24.50;;;19.90;65.40;;;;;;5077145;28;20025;-82
2021/11/15 11:58:51;;;;;;;47.78;23.35;;;19.70;64.10;;;;;;5077017;28;20103;-82
2021/11/15 12:01:24;;;;;;;52.30;24.10;;;19.60;64.70;;;;;;5077343;28;20104;-82
2021/11/15 12:04:11;;;;;;;51.95;24.73;;;19.50;64.50;;;;;;5076916;28;20434;-82
2021/11/15 12:06:38;;;;;;;79.57;37.22;;;19.30;64.90;;;;;;5076805;28;20031;-82
2021/11/15 12:09:04;;;;;;;75.22;32.90;;;19.20;64.40;;;;;;5075628;28;20445;-82
2021/11/15 12:11:33;;;;;;;66.70;29.65;;;19.30;65.80;;;;;;5075595;28;20021;-82
2021/11/15 12:14:00;;;;;;;55.35;23.90;;;19.30;66.00;;;;;;5076966;28;20024;-82
2021/11/15 12:16:58;;;;;;;57.92;24.77;;;19.20;65.50;;;;;;5076837;28;20021;-82
2021/11/15 12:19:50;;;;;;;59.92;26.88;;;19.00;65.90;;;;;;5074478;28;20452;-82
2021/11/15 12:22:24;;;;;;;59.10;26.60;;;18.80;66.30;;;;;;5076480;28;20123;-83
2021/11/15 12:25:08;;;;;;;59.03;24.55;;;18.70;67.30;;;;;;5076617;28;20021;-82
2021/11/15 12:27:52;;;;;;;59.72;25.25;;;18.60;67.80;;;;;;5076644;28;20055;-82
2021/11/15 12:30:26;;;;;;;62.55;25.80;;;18.60;67.90;;;;;;5076774;28;20025;-82
2021/11/15 12:33:17;;;;;;;60.80;25.67;;;18.60;68.20;;;;;;5076513;28;20091;-83
2021/11/15 12:36:09;;;;;;;62.35;26.65;;;18.60;68.60;;;;;;5076734;28;20113;-83
2021/11/15 12:38:53;;;;;;;57.03;25.63;;;18.50;67.00;;;;;;5080290;28;20033;-83
2021/11/15 12:41:19;;;;;;;61.70;26.55;;;18.50;67.80;;;;;;5068478;28;20051;-82
2021/11/15 12:44:04;;;;;;;67.65;27.63;;;18.40;67.00;;;;;;5078891;28;20033;-82
2021/11/15 12:46:45;;;;;;;56.80;24.40;;;18.30;67.70;;;;;;5078873;28;20031;-83
2021/11/15 12:49:35;;;;;;;60.92;27.17;;;18.10;68.10;;;;;;5080026;28;20020;-82